createdAt,value
2019-05-16T00:00:01.365Z,77.55
2019-05-16T00:02:33.923Z,79.13
2019-05-16T00:05:08.370Z,79.75
2019-05-16T00:07:42.660Z,79.19
2019-05-16T00:10:18.719Z,79.90
2019-05-16T00:12:51.878Z,77.76
2019-05-16T00:15:24.560Z,79.87
2019-05-16T00:17:58.653Z,78.55
2019-05-16T00:20:33.120Z,78.13
2019-05-16T00:23:07.789Z,79.50
2019-05-16T00:25:39.755Z,78.76
2019-05-16T00:28:11.973Z,78.29
2019-05-16T00:30:44.097Z,80.03
2019-05-16T00:33:18.390Z,78.61
2019-05-16T00:36:02.153Z,79.08
2019-05-16T00:38:27.612Z,79.57
2019-05-16T00:40:59.876Z,78.97
2019-05-16T00:43:32.250Z,78.49
2019-05-16T00:46:04.632Z,78.13
2019-05-16T00:48:38.182Z,78.20
2019-05-16T00:51:11.365Z,78.23
2019-05-16T00:53:43.826Z,77.60
2019-05-16T00:56:18.624Z,78.62
2019-05-16T00:58:51.979Z,78.21
2019-05-16T01:01:24.377Z,77.63
2019-05-16T01:03:58.505Z,78.95
2019-05-16T01:06:30.500Z,80.58
2019-05-16T01:09:02.880Z,77.61
2019-05-16T01:11:38.039Z,78.40
2019-05-16T01:14:10.015Z,79.27
2019-05-16T01:16:42.319Z,80.96
2019-05-16T01:19:14.737Z,80.55
2019-05-16T01:21:48.359Z,80.32
2019-05-16T01:24:22.152Z,79.35
2019-05-16T01:26:57.780Z,79.75
2019-05-16T01:29:30.823Z,80.10
2019-05-16T01:32:03.227Z,79.14
2019-05-16T01:34:37.808Z,81.91
2019-05-16T01:37:10.268Z,79.23
2019-05-16T01:39:43.026Z,81.95
2019-05-16T01:42:18.283Z,80.70
2019-05-16T01:44:51.158Z,80.22
2019-05-16T01:47:24.311Z,79.87
2019-05-16T01:49:58.042Z,81.65
2019-05-16T01:52:30.853Z,81.65
2019-05-16T01:55:03.787Z,80.47
2019-05-16T01:57:35.844Z,82.06
2019-05-16T02:00:09.459Z,81.97
2019-05-16T02:02:42.381Z,82.10
2019-05-16T02:05:14.438Z,82.53
2019-05-16T02:07:48.022Z,82.31
2019-05-16T02:10:21.322Z,81.87
2019-05-16T02:12:54.088Z,82.40
2019-05-16T02:15:28.510Z,80.70
2019-05-16T02:18:01.203Z,83.10
2019-05-16T02:20:33.725Z,81.17
2019-05-16T02:23:08.077Z,82.28
2019-05-16T02:25:40.940Z,85.78
2019-05-16T02:28:13.886Z,83.82
2019-05-16T02:30:46.538Z,83.32
2019-05-16T02:33:21.309Z,83.71
2019-05-16T02:35:55.807Z,82.48
2019-05-16T02:38:31.501Z,81.50
2019-05-16T02:41:03.392Z,83.59
2019-05-16T02:43:36.168Z,80.31
2019-05-16T02:46:11.897Z,79.89
2019-05-16T02:48:43.874Z,81.65
2019-05-16T02:51:16.039Z,82.11
2019-05-16T02:53:50.998Z,80.73
2019-05-16T02:56:23.294Z,80.38
2019-05-16T02:58:55.967Z,81.35
2019-05-16T03:01:31.507Z,80.96
2019-05-16T03:04:03.190Z,82.13
2019-05-16T03:06:41.033Z,81.92
2019-05-16T03:09:13.309Z,82.36
2019-05-16T03:11:46.736Z,84.29
2019-05-16T03:14:21.697Z,83.56
2019-05-16T03:16:57.208Z,81.39
2019-05-16T03:19:33.007Z,82.30
2019-05-16T03:22:07.750Z,81.80
2019-05-16T03:24:42.067Z,81.84
2019-05-16T03:27:15.091Z,82.75
2019-05-16T03:29:50.479Z,82.87
2019-05-16T03:32:24.094Z,80.89
2019-05-16T03:34:56.325Z,84.14
2019-05-16T03:37:30.738Z,84.68
2019-05-16T03:40:03.134Z,85.27
2019-05-16T03:42:36.261Z,87.86
2019-05-16T03:45:10.540Z,84.45
2019-05-16T03:47:42.758Z,85.44
2019-05-16T03:50:15.517Z,84.63
2019-05-16T03:52:50.802Z,84.26
2019-05-16T03:55:23.783Z,84.87
2019-05-16T03:57:56.756Z,85.34
2019-05-16T04:00:53.054Z,85.12
2019-05-16T04:03:28.425Z,85.03
2019-05-16T04:06:01.163Z,85.27
2019-05-16T04:08:34.353Z,83.67
2019-05-16T04:11:07.184Z,85.55
2019-05-16T04:13:41.169Z,84.99
2019-05-16T04:16:13.936Z,84.58
2019-05-16T04:18:46.710Z,85.67
2019-05-16T04:21:21.917Z,84.60
2019-05-16T04:23:53.147Z,84.68
2019-05-16T04:26:25.794Z,84.92
2019-05-16T04:29:00.781Z,83.23
2019-05-16T04:31:33.409Z,84.73
2019-05-16T04:34:05.803Z,85.50
2019-05-16T04:36:40.549Z,85.13
2019-05-16T04:39:12.892Z,84.99
2019-05-16T04:41:45.274Z,85.10
2019-05-16T04:44:21.062Z,85.54
2019-05-16T04:46:54.289Z,84.56
2019-05-16T04:49:26.895Z,85.54
2019-05-16T04:52:00.586Z,85.45
2019-05-16T04:54:41.876Z,84.57
2019-05-16T04:57:13.544Z,85.41
2019-05-16T04:59:46.017Z,85.34
2019-05-16T05:02:21.079Z,86.27
2019-05-16T05:04:52.153Z,85.70
2019-05-16T05:07:25.527Z,85.30
2019-05-16T05:10:00.405Z,84.57
2019-05-16T05:12:32.378Z,84.38
2019-05-16T05:15:05.200Z,84.07
2019-05-16T05:17:40.917Z,85.14
2019-05-16T05:20:12.552Z,86.17
2019-05-16T05:22:45.211Z,84.40
2019-05-16T05:25:20.240Z,83.51
2019-05-16T05:27:52.303Z,83.19
2019-05-16T05:30:24.587Z,83.72
2019-05-16T05:32:56.891Z,81.97
2019-05-16T05:35:31.090Z,83.93
2019-05-16T05:38:04.339Z,82.28
2019-05-16T05:40:36.503Z,80.44
2019-05-16T05:43:10.555Z,80.46
2019-05-16T05:45:43.025Z,81.06
2019-05-16T05:48:16.221Z,80.75
2019-05-16T05:50:50.671Z,80.09
2019-05-16T05:53:23.761Z,78.78
2019-05-16T05:55:54.771Z,80.83
2019-05-16T05:58:30.502Z,80.52
2019-05-16T06:01:02.037Z,79.47
2019-05-16T06:03:34.556Z,78.35
2019-05-16T06:06:07.368Z,79.37
2019-05-16T06:08:41.019Z,79.12
2019-05-16T06:11:14.311Z,76.64
2019-05-16T06:13:46.803Z,77.71
2019-05-16T06:16:20.474Z,77.14
2019-05-16T06:18:56.712Z,76.40
2019-05-16T06:21:33.092Z,75.79
2019-05-16T06:24:03.236Z,75.25
2019-05-16T06:26:35.856Z,74.95
2019-05-16T06:29:10.489Z,73.69
2019-05-16T06:31:43.036Z,74.53
2019-05-16T06:34:15.538Z,73.73
2019-05-16T06:36:47.862Z,73.38
2019-05-16T06:39:20.311Z,73.14
2019-05-16T06:41:53.001Z,72.98
2019-05-16T06:44:25.684Z,73.05
2019-05-16T06:47:12.618Z,72.81
2019-05-16T06:49:32.852Z,72.29
2019-05-16T06:52:19.740Z,72.66
2019-05-16T06:54:56.482Z,71.80
2019-05-16T06:57:30.156Z,70.63
2019-05-16T07:00:03.245Z,70.86
2019-05-16T07:02:35.989Z,70.69
2019-05-16T07:05:10.176Z,70.13
2019-05-16T07:07:46.401Z,70.18
2019-05-16T07:10:20.576Z,70.31
2019-05-16T07:12:53.212Z,70.18
2019-05-16T07:15:25.295Z,69.25
2019-05-16T07:17:59.726Z,70.00
2019-05-16T07:20:32.786Z,69.10
2019-05-16T07:23:07.391Z,67.95
2019-05-16T07:25:43.071Z,68.17
2019-05-16T07:28:15.976Z,67.11
2019-05-16T07:30:50.055Z,66.78
2019-05-16T07:33:22.426Z,66.77
2019-05-16T07:35:55.177Z,66.38
2019-05-16T07:38:27.976Z,65.70
2019-05-16T07:41:00.366Z,64.58
2019-05-16T07:43:32.799Z,64.98
2019-05-16T07:46:05.216Z,64.83
2019-05-16T07:48:40.385Z,65.66
2019-05-16T07:51:12.551Z,65.54
2019-05-16T07:53:44.946Z,64.98
2019-05-16T07:56:17.303Z,64.52
2019-05-16T07:58:50.867Z,65.23
2019-05-16T08:01:23.387Z,64.88
2019-05-16T08:04:00.086Z,65.51
2019-05-16T08:06:34.142Z,65.95
2019-05-16T08:09:12.028Z,64.93
2019-05-16T08:11:43.980Z,63.69
2019-05-16T08:14:16.665Z,63.77
2019-05-16T08:16:51.719Z,64.02
2019-05-16T08:19:25.448Z,63.35
2019-05-16T08:21:58.207Z,62.76
2019-05-16T08:24:36.054Z,62.51
2019-05-16T08:27:06.674Z,62.85
2019-05-16T08:29:40.402Z,62.40
2019-05-16T08:32:13.878Z,62.21
2019-05-16T08:34:44.941Z,62.08
2019-05-16T08:39:51.444Z,63.34
2019-05-16T08:42:23.867Z,63.00
2019-05-16T08:45:01.167Z,62.67
2019-05-16T08:47:32.437Z,64.58
2019-05-16T08:50:12.677Z,62.72
2019-05-16T08:52:43.455Z,62.19
2019-05-16T08:55:16.713Z,63.04
2019-05-16T08:57:53.036Z,62.52
2019-05-16T09:00:26.472Z,62.12
2019-05-16T09:03:01.774Z,63.03
2019-05-16T09:05:34.522Z,62.24
2019-05-16T09:08:09.027Z,63.14
2019-05-16T09:10:28.429Z,62.93
2019-05-16T09:10:55.772Z,63.40
2019-05-16T09:13:20.259Z,63.89
2019-05-16T09:15:51.604Z,63.37
2019-05-16T09:18:23.642Z,63.96
2019-05-16T09:20:57.831Z,63.83
2019-05-16T09:23:31.407Z,63.86
2019-05-16T09:26:07.068Z,63.96
2019-05-16T09:28:38.958Z,63.82
2019-05-16T09:31:09.506Z,62.97
2019-05-16T09:33:40.427Z,63.77
2019-05-16T09:36:11.413Z,64.25
2019-05-16T09:38:44.304Z,64.68
2019-05-16T09:41:16.881Z,64.98
2019-05-16T09:43:49.017Z,64.31
2019-05-16T09:46:20.047Z,65.54
2019-05-16T09:49:13.010Z,65.92
2019-05-16T09:51:27.176Z,68.40
2019-05-16T09:53:58.391Z,67.74
2019-05-16T09:56:29.884Z,69.49
2019-05-16T09:59:00.592Z,69.73
2019-05-16T10:01:31.279Z,69.53
2019-05-16T10:04:03.579Z,69.05
2019-05-16T10:06:36.933Z,70.11
2019-05-16T10:09:08.059Z,69.75
2019-05-16T10:11:41.656Z,70.36
2019-05-16T10:14:12.324Z,71.46
2019-05-16T10:16:43.368Z,72.10
2019-05-16T10:19:16.902Z,72.97
2019-05-16T10:21:47.440Z,73.25
2019-05-16T10:24:18.118Z,72.99
2019-05-16T10:26:53.810Z,74.26
2019-05-16T10:29:21.557Z,74.49
2019-05-16T10:31:53.570Z,75.20
2019-05-16T10:34:26.639Z,73.92
2019-05-16T10:37:01.152Z,74.04
2019-05-16T10:39:31.831Z,76.66
2019-05-16T10:42:03.745Z,75.09
2019-05-16T10:44:38.524Z,72.77
2019-05-16T10:47:08.008Z,73.60
2019-05-16T10:49:41.867Z,73.58
2019-05-16T10:52:12.690Z,74.86
2019-05-16T10:54:57.288Z,75.15
2019-05-16T10:57:18.684Z,77.47
2019-05-16T11:00:05.308Z,77.53
2019-05-16T11:02:27.558Z,78.30
2019-05-16T11:05:08.435Z,77.77
2019-05-16T11:07:31.261Z,77.39
2019-05-16T11:10:03.716Z,76.04
2019-05-16T11:12:47.551Z,77.00
2019-05-16T11:15:12.495Z,77.69
2019-05-16T11:17:43.153Z,78.02
2019-05-16T11:20:19.663Z,78.07
2019-05-16T11:22:48.732Z,76.78
2019-05-16T11:25:28.733Z,77.99
2019-05-16T11:27:53.556Z,78.49
2019-05-16T11:30:27.821Z,78.90
2019-05-16T11:32:57.831Z,80.27
2019-05-16T11:35:29.307Z,78.59
2019-05-16T11:38:00.742Z,80.31
2019-05-16T11:40:32.018Z,80.12
2019-05-16T11:43:11.409Z,80.61
2019-05-16T11:45:37.028Z,81.71
2019-05-16T11:48:08.457Z,80.48
2019-05-16T11:50:40.316Z,80.56
2019-05-16T11:53:11.357Z,81.63
2019-05-16T11:55:52.114Z,82.49
2019-05-16T11:58:18.005Z,81.70
2019-05-16T12:00:48.558Z,81.71
2019-05-16T12:03:19.747Z,82.50
2019-05-16T12:05:51.131Z,82.71
2019-05-16T12:08:21.819Z,83.53
2019-05-16T12:10:53.172Z,86.48
2019-05-16T12:13:28.545Z,83.66
2019-05-16T12:15:56.814Z,83.48
2019-05-16T12:18:27.500Z,85.59
2019-05-16T12:20:58.771Z,84.92
2019-05-16T12:23:29.746Z,87.15
2019-05-16T12:26:00.669Z,88.37
2019-05-16T12:28:32.208Z,90.31
2019-05-16T12:31:03.073Z,90.33
2019-05-16T12:33:37.027Z,90.22
2019-05-16T12:36:07.993Z,91.50
2019-05-16T12:38:39.006Z,91.09
2019-05-16T12:41:10.034Z,89.99
2019-05-16T12:43:49.314Z,92.96
2019-05-16T12:46:14.337Z,95.13
2019-05-16T12:48:47.453Z,92.94
2019-05-16T12:51:18.209Z,94.17
2019-05-16T12:53:49.870Z,94.26
2019-05-16T12:56:39.950Z,91.64
2019-05-16T12:59:12.082Z,91.42
2019-05-16T13:01:43.484Z,91.18
2019-05-16T13:04:14.256Z,92.79
2019-05-16T13:06:47.093Z,93.77
2019-05-16T13:09:18.602Z,93.32
2019-05-16T13:11:49.898Z,93.30
2019-05-16T13:14:21.221Z,94.96
2019-05-16T13:16:52.210Z,94.62
2019-05-16T13:19:22.979Z,94.31
2019-05-16T13:21:53.802Z,95.65
2019-05-16T13:24:27.663Z,94.19
2019-05-16T13:26:57.490Z,96.37
2019-05-16T13:29:28.513Z,94.85
2019-05-16T13:31:59.515Z,96.09
2019-05-16T13:34:30.612Z,96.66
2019-05-16T13:37:01.356Z,97.00
2019-05-16T13:39:32.028Z,93.71
2019-05-16T13:42:04.236Z,95.71
2019-05-16T13:44:37.509Z,97.31
2019-05-16T13:47:07.845Z,98.92
2019-05-16T13:49:39.122Z,96.18
2019-05-16T13:52:10.996Z,94.76
2019-05-16T13:54:43.946Z,97.10
2019-05-16T13:57:17.173Z,96.80
2019-05-16T13:59:48.059Z,96.64
2019-05-16T14:02:18.858Z,97.04
2019-05-16T14:04:51.869Z,97.22
2019-05-16T14:07:23.217Z,97.94
2019-05-16T14:09:54.232Z,100.00
2019-05-16T14:12:26.791Z,100.00
2019-05-16T14:14:59.083Z,100.00
2019-05-16T14:17:30.018Z,98.41
2019-05-16T14:20:01.672Z,99.78
2019-05-16T14:22:33.197Z,98.55
2019-05-16T14:25:07.105Z,100.00
2019-05-16T14:27:40.000Z,100.00
2019-05-16T14:30:17.547Z,100.00
2019-05-16T14:32:50.744Z,100.00
2019-05-16T14:35:21.237Z,99.51
2019-05-16T14:37:57.455Z,99.61
2019-05-16T14:40:24.781Z,100.00
2019-05-16T14:42:58.278Z,99.59
2019-05-16T14:45:30.252Z,100.00
2019-05-16T14:48:00.964Z,100.00
2019-05-16T14:50:31.749Z,100.00
2019-05-16T14:53:02.843Z,100.00
2019-05-16T14:55:33.956Z,100.00
2019-05-16T14:58:07.162Z,100.00
2019-05-16T15:00:38.443Z,100.00
2019-05-16T15:03:11.602Z,100.00
2019-05-16T15:05:43.238Z,100.00
2019-05-16T15:08:14.182Z,100.00
2019-05-16T15:10:46.841Z,99.51
2019-05-16T15:13:17.964Z,100.00
2019-05-16T15:15:48.880Z,100.00
2019-05-16T15:18:20.133Z,100.00
2019-05-16T15:20:51.169Z,100.00
2019-05-16T15:23:22.124Z,100.00
2019-05-16T15:25:53.336Z,100.00
2019-05-16T15:28:27.695Z,100.00
2019-05-16T15:30:57.522Z,100.00
2019-05-16T15:33:28.615Z,100.00
2019-05-16T15:36:02.584Z,100.00
2019-05-16T15:38:36.406Z,100.00
2019-05-16T15:41:08.302Z,100.00
2019-05-16T15:43:39.665Z,100.00
2019-05-16T15:46:11.129Z,100.00
2019-05-16T15:48:43.294Z,100.00
2019-05-16T15:51:16.610Z,100.00
2019-05-16T15:53:47.740Z,100.00
2019-05-16T15:56:19.070Z,100.00
2019-05-16T15:58:49.770Z,100.00
2019-05-16T16:01:20.456Z,100.00
2019-05-16T16:03:53.143Z,100.00
2019-05-16T16:06:24.078Z,100.00
2019-05-16T16:08:56.047Z,100.00
2019-05-16T16:11:27.353Z,100.00
2019-05-16T16:13:58.680Z,100.00
2019-05-16T16:16:29.365Z,100.00
2019-05-16T16:19:00.687Z,100.00
2019-05-16T16:21:31.845Z,100.00
2019-05-16T16:24:05.150Z,100.00
2019-05-16T16:26:38.188Z,100.00
2019-05-16T16:29:08.707Z,100.00
2019-05-16T16:31:40.000Z,100.00
2019-05-16T16:34:11.366Z,100.00
2019-05-16T16:36:42.822Z,100.00
2019-05-16T16:39:14.074Z,100.00
2019-05-16T16:41:47.575Z,100.00
2019-05-16T16:44:18.237Z,100.00
2019-05-16T16:46:50.186Z,100.00
2019-05-16T16:49:21.675Z,100.00
2019-05-16T16:51:52.743Z,100.00
2019-05-16T16:54:23.840Z,100.00
2019-05-16T16:56:55.630Z,100.00
2019-05-16T16:59:28.067Z,100.00
2019-05-16T17:01:59.664Z,100.00
2019-05-16T17:04:32.719Z,100.00
2019-05-16T17:07:03.769Z,100.00
2019-05-16T17:09:37.053Z,100.00
2019-05-16T17:12:07.477Z,100.00
2019-05-16T17:14:38.739Z,100.00
2019-05-16T17:17:09.467Z,100.00
2019-05-16T17:19:41.348Z,100.00
2019-05-16T17:22:17.371Z,100.00
2019-05-16T17:24:47.169Z,100.00
2019-05-16T17:27:18.706Z,100.00
2019-05-16T17:29:49.656Z,100.00
2019-05-16T17:32:20.583Z,100.00
2019-05-16T17:34:51.537Z,100.00
2019-05-16T17:37:22.935Z,100.00
2019-05-16T17:39:54.036Z,100.00
2019-05-16T17:42:30.918Z,100.00
2019-05-16T17:45:02.020Z,100.00
2019-05-16T17:47:32.999Z,100.00
2019-05-16T17:50:06.217Z,100.00
2019-05-16T17:52:37.351Z,100.00
2019-05-16T17:55:08.537Z,100.00
2019-05-16T17:57:39.603Z,100.00
2019-05-16T18:00:12.780Z,100.00
2019-05-16T18:02:43.282Z,100.00
2019-05-16T18:05:16.744Z,100.00
2019-05-16T18:07:51.356Z,100.00
2019-05-16T18:10:22.953Z,100.00
2019-05-16T18:12:56.859Z,100.00
2019-05-16T18:15:27.547Z,100.00
2019-05-16T18:17:59.002Z,100.00
2019-05-16T18:20:30.290Z,100.00
2019-05-16T18:23:01.294Z,100.00
2019-05-16T18:25:33.213Z,100.00
2019-05-16T18:28:07.700Z,100.00
2019-05-16T18:30:38.023Z,100.00
2019-05-16T18:33:09.787Z,100.00
2019-05-16T18:35:40.842Z,100.00
2019-05-16T18:38:13.520Z,100.00
2019-05-16T18:40:47.365Z,100.00
2019-05-16T18:43:21.235Z,100.00
2019-05-16T18:45:53.758Z,100.00
2019-05-16T18:48:27.290Z,100.00
2019-05-16T18:50:58.983Z,100.00
2019-05-16T18:53:29.984Z,100.00
2019-05-16T18:56:00.987Z,100.00
2019-05-16T18:58:31.918Z,100.00
2019-05-16T19:01:02.964Z,100.00
2019-05-16T19:03:34.028Z,100.00
2019-05-16T19:06:07.912Z,100.00
2019-05-16T19:08:40.347Z,100.00
2019-05-16T19:11:11.009Z,100.00
2019-05-16T19:13:42.030Z,100.00
2019-05-16T19:16:13.343Z,100.00
2019-05-16T19:18:44.047Z,100.00
2019-05-16T19:21:16.892Z,100.00
2019-05-16T19:23:47.711Z,100.00
2019-05-16T19:26:19.709Z,100.00
2019-05-16T19:28:51.335Z,100.00
2019-05-16T19:31:22.865Z,100.00
2019-05-16T19:33:56.526Z,100.00
2019-05-16T19:36:27.252Z,100.00
2019-05-16T19:38:58.677Z,100.00
2019-05-16T19:41:29.346Z,100.00
2019-05-16T19:44:01.112Z,100.00
2019-05-16T19:46:32.203Z,100.00
2019-05-16T19:49:06.351Z,100.00
2019-05-16T19:51:36.792Z,100.00
2019-05-16T19:54:09.736Z,100.00
2019-05-16T19:56:42.616Z,100.00
2019-05-16T19:59:13.759Z,100.00
2019-05-16T20:01:46.361Z,100.00
2019-05-16T20:04:18.519Z,100.00
2019-05-16T20:06:49.299Z,100.00
2019-05-16T20:09:20.248Z,100.00
2019-05-16T20:11:51.569Z,100.00
2019-05-16T20:14:23.132Z,100.00
2019-05-16T20:16:56.658Z,100.00
2019-05-16T20:19:27.635Z,100.00
2019-05-16T20:21:58.620Z,100.00
2019-05-16T20:24:32.238Z,100.00
2019-05-16T20:27:05.325Z,100.00
2019-05-16T20:29:38.244Z,100.00
2019-05-16T20:32:11.453Z,100.00
2019-05-16T20:34:42.564Z,100.00
2019-05-16T20:37:13.647Z,100.00
2019-05-16T20:39:46.618Z,100.00
2019-05-16T20:42:18.234Z,100.00
2019-05-16T20:44:49.982Z,100.00
2019-05-16T20:47:21.007Z,100.00
2019-05-16T20:49:52.688Z,100.00
2019-05-16T20:52:23.827Z,100.00
2019-05-16T20:54:57.635Z,100.00
2019-05-16T20:57:27.904Z,100.00
2019-05-16T20:59:59.070Z,100.00
2019-05-16T21:02:30.331Z,100.00
2019-05-16T21:05:02.012Z,100.00
2019-05-16T21:07:33.131Z,100.00
2019-05-16T21:10:04.344Z,100.00
2019-05-16T21:12:37.302Z,100.00
2019-05-16T21:15:10.271Z,100.00
2019-05-16T21:17:41.342Z,100.00
2019-05-16T21:20:12.193Z,100.00
2019-05-16T21:22:43.247Z,100.00
2019-05-16T21:25:18.572Z,100.00
2019-05-16T21:27:48.846Z,100.00
2019-05-16T21:30:20.080Z,100.00
2019-05-16T21:32:51.250Z,100.00
2019-05-16T21:35:22.300Z,100.00
2019-05-16T21:37:53.416Z,100.00
2019-05-16T21:40:26.530Z,100.00
2019-05-16T21:42:58.783Z,100.00
2019-05-16T21:45:43.156Z,100.00
2019-05-16T21:48:16.756Z,100.00
2019-05-16T21:50:48.805Z,100.00
2019-05-16T21:53:19.889Z,100.00
2019-05-16T21:55:51.300Z,100.00
2019-05-16T21:58:22.684Z,100.00
2019-05-16T22:00:57.879Z,100.00
2019-05-16T22:03:28.592Z,100.00
2019-05-16T22:06:01.578Z,100.00
2019-05-16T22:08:32.928Z,100.00
2019-05-16T22:11:03.900Z,100.00
2019-05-16T22:13:37.023Z,100.00
2019-05-16T22:16:08.359Z,100.00
2019-05-16T22:18:39.083Z,100.00
2019-05-16T22:21:11.374Z,100.00
2019-05-16T22:23:42.887Z,100.00
2019-05-16T22:26:13.823Z,100.00
2019-05-16T22:28:46.722Z,100.00
2019-05-16T22:31:17.950Z,100.00
2019-05-16T22:33:49.980Z,100.00
2019-05-16T22:36:20.932Z,100.00
2019-05-16T22:38:52.736Z,100.00
2019-05-16T22:41:26.528Z,100.00
2019-05-16T22:43:57.690Z,100.00
2019-05-16T22:46:29.330Z,100.00
2019-05-16T22:49:00.679Z,100.00
2019-05-16T22:51:31.933Z,100.00
2019-05-16T22:54:02.973Z,100.00
2019-05-16T22:56:33.970Z,100.00
2019-05-16T22:59:07.057Z,100.00
2019-05-16T23:01:37.843Z,100.00
2019-05-16T23:04:08.880Z,100.00
2019-05-16T23:06:39.659Z,100.00
2019-05-16T23:09:10.830Z,100.00
2019-05-16T23:11:42.127Z,100.00
2019-05-16T23:14:17.083Z,100.00
2019-05-16T23:16:47.637Z,100.00
2019-05-16T23:19:18.654Z,100.00
2019-05-16T23:21:49.887Z,100.00
2019-05-16T23:24:21.141Z,100.00
2019-05-16T23:26:52.416Z,100.00
2019-05-16T23:29:23.999Z,100.00
2019-05-16T23:31:56.446Z,100.00
2019-05-16T23:34:27.764Z,100.00
2019-05-16T23:36:59.366Z,100.00
2019-05-16T23:39:30.041Z,100.00
2019-05-16T23:42:01.634Z,100.00
2019-05-16T23:44:32.629Z,100.00
2019-05-16T23:47:03.636Z,100.00
2019-05-16T23:49:36.664Z,100.00
2019-05-16T23:52:07.646Z,100.00
2019-05-16T23:54:38.703Z,100.00
2019-05-16T23:57:09.839Z,100.00
2019-05-16T23:59:40.587Z,100.00
